createdAt,value
2022-08-26T00:00:59.915Z,21.04
2022-08-26T00:02:32.129Z,21.02
2022-08-26T00:04:04.384Z,20.97
2022-08-26T00:05:36.883Z,20.93
2022-08-26T00:07:09.248Z,20.89
2022-08-26T00:08:41.824Z,20.85
2022-08-26T00:10:14.421Z,20.82
2022-08-26T00:11:47.227Z,20.80
2022-08-26T00:13:19.729Z,20.79
2022-08-26T00:14:51.801Z,20.78
2022-08-26T00:16:24.694Z,20.79
2022-08-26T00:17:57.108Z,20.79
2022-08-26T00:19:29.364Z,20.79
2022-08-26T00:21:01.542Z,20.82
2022-08-26T00:22:38.465Z,20.81
2022-08-26T00:24:10.947Z,20.82
2022-08-26T00:25:43.060Z,20.85
2022-08-26T00:27:15.218Z,20.89
2022-08-26T00:28:47.932Z,20.91
2022-08-26T00:30:22.773Z,20.94
2022-08-26T00:31:56.373Z,20.97
2022-08-26T00:33:28.525Z,20.99
2022-08-26T00:35:00.653Z,21.00
2022-08-26T00:36:34.248Z,21.00
2022-08-26T00:38:06.418Z,21.01
2022-08-26T00:39:39.588Z,20.99
2022-08-26T00:41:12.704Z,20.98
2022-08-26T00:42:46.252Z,20.98
2022-08-26T00:44:19.583Z,20.97
2022-08-26T00:46:18.118Z,20.97
2022-08-26T00:47:53.135Z,20.97
2022-08-26T00:49:32.766Z,20.98
2022-08-26T00:51:09.059Z,20.96
2022-08-26T00:52:42.255Z,20.99
2022-08-26T00:54:17.520Z,21.03
2022-08-26T00:55:59.610Z,21.06
2022-08-26T00:57:33.170Z,21.11
2022-08-26T00:59:06.875Z,21.17
2022-08-26T01:00:39.385Z,21.22
2022-08-26T01:02:21.246Z,21.25
2022-08-26T01:03:55.581Z,21.27
2022-08-26T01:05:28.739Z,21.29
2022-08-26T01:07:03.911Z,21.30
2022-08-26T01:08:36.877Z,21.33
2022-08-26T01:10:11.374Z,21.35
2022-08-26T01:11:43.611Z,21.37
2022-08-26T01:13:16.653Z,21.37
2022-08-26T01:14:52.230Z,21.39
2022-08-26T01:16:27.474Z,21.38
2022-08-26T01:18:00.336Z,21.38
2022-08-26T01:19:51.087Z,21.38
2022-08-26T01:21:45.470Z,21.39
2022-08-26T01:23:17.926Z,21.42
2022-08-26T01:24:54.649Z,21.42
2022-08-26T01:26:30.953Z,21.42
2022-08-26T01:28:21.703Z,21.40
2022-08-26T01:29:54.344Z,21.36
2022-08-26T01:31:27.961Z,21.34
2022-08-26T01:33:01.498Z,21.26
2022-08-26T01:34:36.083Z,21.18
2022-08-26T01:36:08.644Z,21.07
2022-08-26T01:37:41.076Z,20.97
2022-08-26T01:39:13.385Z,20.86
2022-08-26T01:40:46.010Z,20.74
2022-08-26T01:42:19.871Z,20.65
2022-08-26T01:43:54.619Z,20.53
2022-08-26T01:45:29.120Z,20.45
2022-08-26T01:47:02.085Z,20.36
2022-08-26T01:48:38.798Z,20.29
2022-08-26T01:50:12.610Z,20.23
2022-08-26T01:51:50.321Z,20.15
2022-08-26T01:53:23.747Z,20.08
2022-08-26T01:54:57.158Z,20.01
2022-08-26T01:56:33.356Z,19.95
2022-08-26T01:58:11.050Z,19.89
2022-08-26T01:59:44.290Z,19.84
2022-08-26T02:01:16.905Z,19.80
2022-08-26T02:03:17.154Z,19.77
2022-08-26T02:04:51.793Z,19.72
2022-08-26T02:06:24.516Z,19.70
2022-08-26T02:07:57.165Z,19.67
2022-08-26T02:09:29.304Z,19.64
2022-08-26T02:11:03.024Z,19.61
2022-08-26T02:12:35.911Z,19.58
2022-08-26T02:14:20.089Z,19.56
2022-08-26T02:15:53.310Z,19.53
2022-08-26T02:17:37.896Z,19.49
2022-08-26T02:19:16.998Z,19.48
2022-08-26T02:20:51.542Z,19.46
2022-08-26T02:22:24.653Z,19.44
2022-08-26T02:23:56.872Z,19.44
2022-08-26T02:25:34.072Z,19.43
2022-08-26T02:27:06.186Z,19.44
2022-08-26T02:28:45.430Z,19.43
2022-08-26T02:30:22.363Z,19.42
2022-08-26T02:31:55.814Z,19.39
2022-08-26T02:33:28.609Z,19.37
2022-08-26T02:35:00.611Z,19.35
2022-08-26T02:36:32.922Z,19.33
2022-08-26T02:38:10.032Z,19.31
2022-08-26T02:39:43.658Z,19.30
2022-08-26T02:41:15.728Z,19.27
2022-08-26T02:42:52.746Z,19.24
2022-08-26T02:44:26.266Z,19.23
2022-08-26T02:45:59.522Z,19.22
2022-08-26T02:47:34.005Z,19.24
2022-08-26T02:49:07.022Z,19.25
2022-08-26T02:50:40.034Z,19.25
2022-08-26T02:52:12.346Z,19.25
2022-08-26T02:53:44.517Z,19.25
2022-08-26T02:55:16.700Z,19.25
2022-08-26T02:56:49.503Z,19.26
2022-08-26T02:58:21.826Z,19.27
2022-08-26T02:59:53.894Z,19.28
2022-08-26T03:01:27.496Z,19.28
2022-08-26T03:03:00.168Z,19.29
2022-08-26T03:04:33.372Z,19.29
2022-08-26T03:06:05.656Z,19.29
2022-08-26T03:07:37.815Z,19.30
2022-08-26T03:09:10.615Z,19.28
2022-08-26T03:10:50.991Z,19.28
2022-08-26T03:12:23.045Z,19.29
2022-08-26T03:13:55.674Z,19.30
2022-08-26T03:15:29.001Z,19.30
2022-08-26T03:17:01.168Z,19.31
2022-08-26T03:18:33.301Z,19.30
2022-08-26T03:20:09.498Z,19.30
2022-08-26T03:21:42.273Z,19.30
2022-08-26T03:23:15.077Z,19.31
2022-08-26T03:24:48.623Z,19.31
2022-08-26T03:26:21.188Z,19.32
2022-08-26T03:27:53.773Z,19.32
2022-08-26T03:29:45.649Z,19.30
2022-08-26T03:31:24.652Z,19.30
2022-08-26T03:32:57.280Z,19.29
2022-08-26T03:34:29.477Z,19.29
2022-08-26T03:36:04.052Z,19.28
2022-08-26T03:37:36.614Z,19.27
2022-08-26T03:39:09.191Z,19.25
2022-08-26T03:40:42.785Z,19.22
2022-08-26T03:42:15.971Z,19.21
2022-08-26T03:43:50.780Z,19.21
2022-08-26T03:45:23.473Z,19.20
2022-08-26T03:46:56.673Z,19.19
2022-08-26T03:48:28.757Z,19.19
2022-08-26T03:50:02.434Z,19.17
2022-08-26T03:51:35.357Z,19.19
2022-08-26T03:53:12.771Z,19.19
2022-08-26T03:54:45.506Z,19.18
2022-08-26T03:56:19.507Z,19.19
2022-08-26T03:57:52.119Z,19.18
2022-08-26T03:59:24.281Z,19.17
2022-08-26T04:00:56.622Z,19.17
2022-08-26T04:02:28.919Z,19.17
2022-08-26T04:04:01.590Z,19.18
2022-08-26T04:05:35.351Z,19.18
2022-08-26T04:07:07.478Z,19.18
2022-08-26T04:08:40.202Z,19.20
2022-08-26T04:10:13.638Z,19.20
2022-08-26T04:11:47.555Z,19.22
2022-08-26T04:13:22.948Z,19.22
2022-08-26T04:14:57.087Z,19.25
2022-08-26T04:16:30.755Z,19.26
2022-08-26T04:18:02.945Z,19.29
2022-08-26T04:19:35.090Z,19.30
2022-08-26T04:21:08.105Z,19.33
2022-08-26T04:22:42.158Z,19.37
2022-08-26T04:24:15.656Z,19.41
2022-08-26T04:25:47.703Z,19.45
2022-08-26T04:27:20.327Z,19.52
2022-08-26T04:28:53.846Z,19.55
2022-08-26T04:30:25.962Z,19.62
2022-08-26T04:31:58.135Z,19.66
2022-08-26T04:33:32.471Z,19.72
2022-08-26T04:35:06.266Z,19.78
2022-08-26T04:36:38.719Z,19.83
2022-08-26T04:38:11.140Z,19.91
2022-08-26T04:39:43.617Z,19.98
2022-08-26T04:41:18.519Z,20.05
2022-08-26T04:42:50.712Z,20.13
2022-08-26T04:44:24.995Z,20.21
2022-08-26T04:45:59.600Z,20.30
2022-08-26T04:47:32.499Z,20.39
2022-08-26T04:49:08.343Z,20.47
2022-08-26T04:50:40.461Z,20.58
2022-08-26T04:52:15.474Z,20.67
2022-08-26T04:53:48.414Z,20.77
2022-08-26T04:55:38.103Z,20.86
2022-08-26T04:57:11.927Z,20.98
2022-08-26T04:58:46.740Z,21.09
2022-08-26T05:00:19.290Z,21.19
2022-08-26T05:01:52.597Z,21.29
2022-08-26T05:03:25.554Z,21.39
2022-08-26T05:04:58.798Z,21.53
2022-08-26T05:06:31.656Z,21.72
2022-08-26T05:08:13.605Z,22.05
2022-08-26T05:09:45.727Z,22.47
2022-08-26T05:11:18.161Z,22.89
2022-08-26T05:12:50.492Z,23.37
2022-08-26T05:14:23.389Z,23.86
2022-08-26T05:15:55.773Z,24.37
2022-08-26T05:17:33.684Z,24.80
2022-08-26T05:19:06.933Z,25.10
2022-08-26T05:20:42.263Z,25.43
2022-08-26T05:22:14.939Z,25.88
2022-08-26T05:23:48.283Z,26.37
2022-08-26T05:25:21.612Z,26.86
2022-08-26T05:26:53.724Z,27.33
2022-08-26T05:28:26.568Z,27.72
2022-08-26T05:29:59.994Z,28.11
2022-08-26T05:31:34.052Z,28.49
2022-08-26T05:33:06.542Z,28.80
2022-08-26T05:34:38.589Z,29.07
2022-08-26T05:36:12.570Z,29.36
2022-08-26T05:37:45.367Z,29.71
2022-08-26T05:39:17.531Z,30.08
2022-08-26T05:40:52.617Z,30.48
2022-08-26T05:42:25.551Z,30.88
2022-08-26T05:43:59.678Z,31.29
2022-08-26T05:45:33.665Z,31.71
2022-08-26T05:47:05.870Z,32.09
2022-08-26T05:48:40.234Z,32.44
2022-08-26T05:50:21.739Z,32.73
2022-08-26T05:51:55.010Z,33.05
2022-08-26T05:53:27.296Z,33.39
2022-08-26T05:54:59.892Z,33.74
2022-08-26T05:56:31.972Z,34.08
2022-08-26T05:58:04.122Z,34.39
2022-08-26T05:59:36.436Z,34.71
2022-08-26T06:01:14.443Z,35.00
2022-08-26T06:02:48.384Z,35.27
2022-08-26T06:04:20.709Z,35.56
2022-08-26T06:05:53.038Z,35.86
2022-08-26T06:07:45.422Z,36.17
2022-08-26T06:09:18.217Z,36.57
2022-08-26T06:10:50.980Z,36.88
2022-08-26T06:12:24.501Z,37.16
2022-08-26T06:14:03.146Z,37.31
2022-08-26T06:15:39.030Z,37.37
2022-08-26T06:17:14.200Z,37.40
2022-08-26T06:18:47.413Z,37.48
2022-08-26T06:20:19.807Z,37.59
2022-08-26T06:21:54.305Z,37.70
2022-08-26T06:23:47.440Z,37.76
2022-08-26T06:25:38.110Z,37.85
2022-08-26T06:27:13.861Z,38.07
2022-08-26T06:28:47.405Z,38.11
2022-08-26T06:30:20.038Z,38.07
2022-08-26T06:31:56.161Z,37.90
2022-08-26T06:33:28.916Z,37.83
2022-08-26T06:35:01.076Z,37.98
2022-08-26T06:36:36.390Z,38.15
2022-08-26T06:38:09.974Z,38.16
2022-08-26T06:39:42.112Z,38.36
2022-08-26T06:41:14.692Z,38.65
2022-08-26T06:42:47.240Z,38.93
2022-08-26T06:44:19.831Z,39.19
2022-08-26T06:46:00.606Z,39.39
2022-08-26T06:47:33.007Z,39.24
2022-08-26T06:49:09.918Z,39.07
2022-08-26T06:50:42.981Z,39.03
2022-08-26T06:52:15.128Z,39.22
2022-08-26T06:53:53.317Z,39.39
2022-08-26T06:55:27.068Z,39.55
2022-08-26T06:56:59.552Z,39.53
2022-08-26T06:58:32.586Z,39.54
2022-08-26T07:00:08.236Z,39.49
2022-08-26T07:01:44.770Z,39.42
2022-08-26T07:03:17.088Z,39.39
2022-08-26T07:04:51.079Z,39.46
2022-08-26T07:06:23.614Z,39.42
2022-08-26T07:07:56.975Z,39.06
2022-08-26T07:09:33.063Z,39.06
2022-08-26T07:11:09.142Z,39.27
2022-08-26T07:12:41.241Z,39.35
2022-08-26T07:14:14.014Z,39.04
2022-08-26T07:15:48.158Z,38.66
2022-08-26T07:17:25.501Z,38.52
2022-08-26T07:18:57.921Z,38.66
2022-08-26T07:20:30.398Z,38.89
2022-08-26T07:22:03.886Z,39.06
2022-08-26T07:23:36.809Z,39.32
2022-08-26T07:25:09.379Z,39.55
2022-08-26T07:26:43.287Z,39.87
2022-08-26T07:28:15.380Z,40.07
2022-08-26T07:29:47.734Z,40.29
2022-08-26T07:31:21.929Z,39.89
2022-08-26T07:32:55.823Z,39.70
2022-08-26T07:34:29.258Z,39.52
2022-08-26T07:36:01.955Z,39.23
2022-08-26T07:37:39.166Z,38.99
2022-08-26T07:39:11.835Z,39.15
2022-08-26T07:40:43.932Z,39.38
2022-08-26T07:42:16.807Z,39.43
2022-08-26T07:43:51.847Z,39.37
2022-08-26T07:45:24.582Z,39.46
2022-08-26T07:46:56.717Z,39.56
2022-08-26T07:48:29.088Z,39.66
2022-08-26T07:50:02.695Z,39.77
2022-08-26T07:51:37.198Z,39.83
2022-08-26T07:53:10.801Z,39.63
2022-08-26T07:54:44.803Z,39.46
2022-08-26T07:56:17.038Z,39.54
2022-08-26T07:57:49.808Z,39.72
2022-08-26T07:59:21.947Z,39.72
2022-08-26T08:00:55.249Z,39.69
2022-08-26T08:02:28.500Z,39.44
2022-08-26T08:04:01.101Z,38.95
2022-08-26T08:05:34.808Z,38.82
2022-08-26T08:07:07.557Z,38.96
2022-08-26T08:08:44.657Z,39.04
2022-08-26T08:10:21.049Z,39.08
2022-08-26T08:11:53.281Z,39.10
2022-08-26T08:13:25.449Z,38.82
2022-08-26T08:14:57.609Z,38.28
2022-08-26T08:16:32.092Z,37.88
2022-08-26T08:18:06.759Z,37.85
2022-08-26T08:19:47.789Z,37.86
2022-08-26T08:21:21.833Z,37.94
2022-08-26T08:22:56.657Z,37.92
2022-08-26T08:24:29.925Z,37.97
2022-08-26T08:26:05.785Z,38.11
2022-08-26T08:27:41.517Z,38.24
2022-08-26T08:29:13.987Z,38.22
2022-08-26T08:30:46.102Z,38.07
2022-08-26T08:32:18.795Z,37.85
2022-08-26T08:33:50.976Z,37.77
2022-08-26T08:35:26.329Z,37.78
2022-08-26T08:36:58.539Z,37.82
2022-08-26T08:38:32.225Z,37.91
2022-08-26T08:40:04.888Z,37.97
2022-08-26T08:41:40.434Z,37.99
2022-08-26T08:43:14.835Z,37.93
2022-08-26T08:44:52.142Z,38.00
2022-08-26T08:46:24.717Z,37.88
2022-08-26T08:48:00.368Z,37.72
2022-08-26T08:49:34.351Z,37.56
2022-08-26T08:51:14.444Z,37.44
2022-08-26T08:52:51.018Z,37.32
2022-08-26T08:54:26.422Z,37.27
2022-08-26T08:55:58.526Z,37.20
2022-08-26T08:57:39.789Z,37.14
2022-08-26T08:59:25.206Z,36.92
2022-08-26T09:01:00.657Z,36.73
2022-08-26T09:02:39.313Z,36.23
2022-08-26T09:04:30.699Z,35.66
2022-08-26T09:06:05.325Z,35.12
2022-08-26T09:07:39.291Z,34.61
2022-08-26T09:09:16.521Z,34.20
2022-08-26T09:11:02.003Z,33.99
2022-08-26T09:12:34.704Z,33.91
2022-08-26T09:14:08.114Z,33.78
2022-08-26T09:15:46.771Z,33.53
2022-08-26T09:17:39.151Z,33.27
2022-08-26T09:19:19.561Z,33.13
2022-08-26T09:21:05.687Z,33.05
2022-08-26T09:22:38.688Z,32.98
2022-08-26T09:24:14.013Z,32.91
2022-08-26T09:25:48.122Z,32.85
2022-08-26T09:27:40.288Z,32.83
2022-08-26T09:30:59.824Z,32.67
2022-08-26T09:32:32.260Z,32.58
2022-08-26T09:34:04.941Z,32.56
2022-08-26T09:35:39.512Z,32.50
2022-08-26T09:37:11.711Z,32.47
2022-08-26T09:38:45.075Z,32.46
2022-08-26T09:40:34.539Z,32.47
2022-08-26T09:42:14.239Z,32.40
2022-08-26T09:44:04.301Z,32.36
2022-08-26T09:45:36.982Z,32.34
2022-08-26T09:47:09.681Z,32.30
2022-08-26T09:48:43.502Z,32.28
2022-08-26T09:50:23.351Z,32.29
2022-08-26T09:52:09.047Z,32.34
2022-08-26T09:53:52.930Z,32.36
2022-08-26T09:55:25.247Z,32.37
2022-08-26T09:57:17.869Z,32.34
2022-08-26T09:58:50.727Z,32.33
2022-08-26T10:00:24.388Z,32.35
2022-08-26T10:02:15.209Z,32.37
2022-08-26T10:03:50.665Z,32.41
2022-08-26T10:05:35.164Z,32.41
2022-08-26T10:07:08.254Z,32.44
2022-08-26T10:08:42.350Z,32.48
2022-08-26T10:10:33.714Z,32.50
2022-08-26T10:12:13.431Z,32.55
2022-08-26T10:13:49.300Z,32.57
2022-08-26T10:15:23.705Z,32.52
2022-08-26T10:17:26.745Z,32.44
2022-08-26T10:19:07.783Z,32.39
2022-08-26T10:20:45.620Z,32.34
2022-08-26T10:22:21.026Z,32.24
2022-08-26T10:23:55.507Z,32.19
2022-08-26T10:25:29.727Z,32.16
2022-08-26T10:27:06.216Z,32.23
2022-08-26T10:28:44.247Z,32.25
2022-08-26T10:30:20.690Z,32.29
2022-08-26T10:32:02.541Z,32.35
2022-08-26T10:33:38.661Z,32.44
2022-08-26T10:35:12.270Z,32.50
2022-08-26T10:37:14.133Z,32.54
2022-08-26T10:38:48.474Z,32.59
2022-08-26T10:40:25.007Z,32.64
2022-08-26T10:42:00.569Z,32.70
2022-08-26T10:43:37.037Z,32.77
2022-08-26T10:45:22.090Z,32.85
2022-08-26T10:46:57.256Z,32.91
2022-08-26T10:48:35.845Z,33.01
2022-08-26T10:50:08.171Z,33.12
2022-08-26T10:51:50.390Z,33.22
2022-08-26T10:53:36.302Z,33.30
2022-08-26T10:55:09.346Z,33.39
2022-08-26T10:56:41.800Z,33.44
2022-08-26T10:58:26.168Z,33.45
2022-08-26T11:00:30.043Z,33.46
2022-08-26T11:02:04.089Z,33.35
2022-08-26T11:03:43.067Z,33.28
2022-08-26T11:05:23.514Z,33.35
2022-08-26T11:07:14.547Z,33.39
2022-08-26T11:08:47.758Z,33.41
2022-08-26T11:10:19.798Z,33.46
2022-08-26T11:11:51.945Z,33.54
2022-08-26T11:13:42.567Z,33.63
2022-08-26T11:15:24.516Z,33.75
2022-08-26T11:16:57.833Z,33.82
2022-08-26T11:18:41.323Z,33.88
2022-08-26T11:20:22.348Z,33.86
2022-08-26T11:22:31.736Z,33.74
2022-08-26T11:24:03.819Z,33.54
2022-08-26T11:25:57.831Z,33.42
2022-08-26T11:27:35.178Z,33.37
2022-08-26T11:29:13.279Z,33.40
2022-08-26T11:30:47.750Z,33.53
2022-08-26T11:32:35.716Z,33.66
2022-08-26T11:34:13.128Z,33.77
2022-08-26T11:35:46.229Z,33.83
2022-08-26T11:38:55.875Z,33.89
2022-08-26T11:40:32.710Z,33.86
2022-08-26T11:42:16.792Z,33.90
2022-08-26T11:43:52.967Z,33.96
2022-08-26T11:45:34.060Z,33.98
2022-08-26T11:47:11.559Z,34.01
2022-08-26T11:48:43.907Z,34.03
2022-08-26T11:50:21.143Z,34.06
2022-08-26T11:52:07.405Z,34.10
2022-08-26T11:53:42.591Z,34.10
2022-08-26T11:55:15.019Z,34.11
2022-08-26T11:56:48.800Z,34.12
2022-08-26T11:58:21.718Z,34.14
2022-08-26T11:59:55.443Z,34.15
2022-08-26T12:01:31.276Z,34.19
2022-08-26T12:03:07.250Z,34.24
2022-08-26T12:04:41.139Z,34.26
2022-08-26T12:06:14.252Z,34.32
2022-08-26T12:07:48.929Z,34.41
2022-08-26T12:09:25.977Z,34.47
2022-08-26T12:11:09.694Z,34.56
2022-08-26T12:12:42.818Z,34.66
2022-08-26T12:14:17.817Z,34.66
2022-08-26T12:15:55.934Z,34.66
2022-08-26T12:17:28.423Z,34.69
2022-08-26T12:19:00.841Z,34.75
2022-08-26T12:20:48.675Z,34.77
2022-08-26T12:22:20.954Z,34.73
2022-08-26T12:23:54.948Z,34.60
2022-08-26T12:25:28.146Z,34.50
2022-08-26T12:27:15.467Z,34.40
2022-08-26T12:28:49.318Z,34.27
2022-08-26T12:30:23.433Z,34.19
2022-08-26T12:32:09.677Z,34.02
2022-08-26T12:33:41.852Z,33.84
2022-08-26T12:35:16.321Z,33.75
2022-08-26T12:36:48.620Z,33.73
2022-08-26T12:38:21.518Z,33.72
2022-08-26T12:39:54.210Z,33.78
2022-08-26T12:41:45.243Z,33.84
2022-08-26T12:43:37.142Z,33.80
2022-08-26T12:45:09.938Z,33.77
2022-08-26T12:46:43.922Z,33.75
2022-08-26T12:48:26.944Z,33.72
2022-08-26T12:50:19.339Z,33.71
2022-08-26T12:51:51.746Z,33.80
2022-08-26T12:53:25.329Z,33.86
2022-08-26T12:55:02.855Z,33.94
2022-08-26T12:56:39.630Z,34.08
2022-08-26T12:58:21.146Z,34.19
2022-08-26T12:59:53.619Z,34.34
2022-08-26T13:01:25.837Z,34.43
2022-08-26T13:03:01.923Z,34.49
2022-08-26T13:04:36.150Z,34.54
2022-08-26T13:06:15.932Z,34.60
2022-08-26T13:08:07.163Z,34.65
2022-08-26T13:09:39.664Z,34.75
2022-08-26T13:11:20.440Z,34.89
2022-08-26T13:12:52.587Z,34.97
2022-08-26T13:14:24.929Z,34.96
2022-08-26T13:15:57.471Z,34.92
2022-08-26T13:17:29.916Z,34.88
2022-08-26T13:19:05.221Z,34.83
2022-08-26T13:20:41.703Z,34.72
2022-08-26T13:22:15.039Z,34.62
2022-08-26T13:23:47.907Z,34.56
2022-08-26T13:25:20.126Z,34.51
2022-08-26T13:26:52.267Z,34.50
2022-08-26T13:28:24.711Z,34.53
2022-08-26T13:29:57.878Z,34.62
2022-08-26T13:31:32.487Z,34.75
2022-08-26T13:33:05.686Z,34.93
2022-08-26T13:34:39.095Z,35.07
2022-08-26T13:36:11.275Z,35.18
2022-08-26T13:37:44.124Z,35.27
2022-08-26T13:39:18.439Z,35.37
2022-08-26T13:40:51.120Z,35.47
2022-08-26T13:42:23.220Z,35.52
2022-08-26T13:43:55.379Z,35.46
2022-08-26T13:45:27.804Z,35.41
2022-08-26T13:47:00.777Z,35.45
2022-08-26T13:48:35.147Z,35.54
2022-08-26T13:50:08.905Z,35.61
2022-08-26T13:51:41.903Z,35.63
2022-08-26T13:53:14.877Z,35.60
2022-08-26T13:54:46.923Z,35.49
2022-08-26T13:56:19.814Z,35.50
2022-08-26T13:57:52.313Z,35.53
2022-08-26T13:59:24.781Z,35.55
2022-08-26T14:00:57.608Z,35.43
2022-08-26T14:02:31.106Z,35.41
2022-08-26T14:04:03.430Z,35.39
2022-08-26T14:05:35.883Z,35.45
2022-08-26T14:07:08.426Z,35.55
2022-08-26T14:08:41.374Z,35.63
2022-08-26T14:10:13.642Z,35.68
2022-08-26T14:11:54.647Z,35.73
2022-08-26T14:13:27.278Z,35.73
2022-08-26T14:15:00.374Z,35.76
2022-08-26T14:16:34.519Z,35.72
2022-08-26T14:18:08.817Z,35.72
2022-08-26T14:19:44.145Z,35.76
2022-08-26T14:21:16.258Z,35.83
2022-08-26T14:23:12.689Z,35.83
2022-08-26T14:24:40.671Z,35.77
2022-08-26T14:26:27.884Z,35.74
2022-08-26T14:28:01.698Z,35.78
2022-08-26T14:29:33.891Z,35.82
2022-08-26T14:31:06.917Z,35.86
2022-08-26T14:32:41.542Z,35.89
2022-08-26T14:34:13.918Z,35.96
2022-08-26T14:35:48.848Z,35.97
2022-08-26T14:37:21.743Z,35.97
2022-08-26T14:38:54.698Z,35.97
2022-08-26T14:40:28.990Z,35.94
2022-08-26T14:42:01.344Z,35.89
2022-08-26T14:43:34.029Z,35.88
2022-08-26T14:45:07.542Z,35.86
2022-08-26T14:46:44.751Z,35.84
2022-08-26T14:48:16.946Z,35.77
2022-08-26T14:49:49.499Z,35.73
2022-08-26T14:51:21.781Z,35.65
2022-08-26T14:53:12.572Z,35.58
2022-08-26T14:54:44.781Z,35.58
2022-08-26T14:56:17.981Z,35.55
2022-08-26T14:57:50.557Z,35.58
2022-08-26T14:59:25.519Z,35.62
2022-08-26T15:00:57.785Z,35.65
2022-08-26T15:02:34.115Z,35.64
2022-08-26T15:04:06.784Z,35.66
2022-08-26T15:05:39.916Z,35.64
2022-08-26T15:07:12.642Z,35.61
2022-08-26T15:08:45.284Z,35.58
2022-08-26T15:10:18.076Z,35.45
2022-08-26T15:11:50.756Z,35.42
2022-08-26T15:13:22.826Z,35.46
2022-08-26T15:14:55.218Z,35.52
2022-08-26T15:16:28.322Z,35.59
2022-08-26T15:18:00.478Z,35.66
2022-08-26T15:19:32.542Z,35.69
2022-08-26T15:21:06.270Z,35.67
2022-08-26T15:22:39.036Z,35.62
2022-08-26T15:24:11.360Z,35.60
2022-08-26T15:25:43.730Z,35.61
2022-08-26T15:27:16.202Z,35.64
2022-08-26T15:28:48.615Z,35.62
2022-08-26T15:30:20.714Z,35.63
2022-08-26T15:31:57.182Z,35.60
2022-08-26T15:33:30.311Z,35.53
2022-08-26T15:35:06.854Z,35.46
2022-08-26T15:36:42.737Z,35.35
2022-08-26T15:38:15.085Z,35.22
2022-08-26T15:39:49.912Z,35.11
2022-08-26T15:41:22.479Z,35.00
2022-08-26T15:43:11.285Z,34.93
2022-08-26T15:44:46.796Z,34.84
2022-08-26T15:46:19.363Z,34.73
2022-08-26T15:48:01.365Z,34.66
2022-08-26T15:49:34.988Z,34.58
2022-08-26T15:51:07.931Z,34.49
2022-08-26T15:52:40.368Z,34.43
2022-08-26T15:54:12.808Z,34.36
2022-08-26T15:55:45.488Z,34.30
2022-08-26T15:57:19.744Z,34.26
2022-08-26T15:58:54.086Z,34.23
2022-08-26T16:00:28.593Z,34.18
2022-08-26T16:02:02.084Z,34.06
2022-08-26T16:03:34.909Z,33.95
2022-08-26T16:05:07.562Z,33.86
2022-08-26T16:06:41.284Z,33.79
2022-08-26T16:08:14.224Z,33.71
2022-08-26T16:09:49.093Z,33.64
2022-08-26T16:11:27.193Z,33.51
2022-08-26T16:12:59.337Z,33.45
2022-08-26T16:14:31.533Z,33.44
2022-08-26T16:16:03.849Z,33.42
2022-08-26T16:17:37.709Z,33.41
2022-08-26T16:19:10.140Z,33.43
2022-08-26T16:20:55.330Z,33.42
2022-08-26T16:22:43.013Z,33.36
2022-08-26T16:24:15.244Z,33.32
2022-08-26T16:25:47.392Z,33.29
2022-08-26T16:27:19.505Z,33.24
2022-08-26T16:28:55.428Z,33.17
2022-08-26T16:30:27.719Z,33.10
2022-08-26T16:31:59.786Z,33.05
2022-08-26T16:33:31.973Z,33.03
2022-08-26T16:35:04.701Z,32.97
2022-08-26T16:36:37.787Z,32.89
2022-08-26T16:38:10.147Z,32.88
2022-08-26T16:39:45.130Z,32.82
2022-08-26T16:41:17.792Z,32.77
2022-08-26T16:42:54.941Z,32.73
2022-08-26T16:44:28.085Z,32.71
2022-08-26T16:46:05.041Z,32.70
2022-08-26T16:47:37.630Z,32.66
2022-08-26T16:49:10.011Z,32.63
2022-08-26T16:50:42.088Z,32.60
2022-08-26T16:52:18.368Z,32.58
2022-08-26T16:53:52.316Z,32.53
2022-08-26T16:55:24.406Z,32.47
2022-08-26T16:56:56.876Z,32.44
2022-08-26T16:58:29.535Z,32.42
2022-08-26T17:00:05.021Z,32.36
2022-08-26T17:01:38.447Z,32.31
2022-08-26T17:03:10.932Z,32.24
2022-08-26T17:04:47.161Z,32.15
2022-08-26T17:06:20.661Z,32.07
2022-08-26T17:07:52.962Z,32.01
2022-08-26T17:09:25.674Z,31.97
2022-08-26T17:11:00.642Z,31.93
2022-08-26T17:12:33.847Z,31.87
2022-08-26T17:14:06.134Z,31.80
2022-08-26T17:15:38.320Z,31.76
2022-08-26T17:17:10.586Z,31.72
2022-08-26T17:18:43.098Z,31.66
2022-08-26T17:20:16.155Z,31.61
2022-08-26T17:21:48.342Z,31.54
2022-08-26T17:23:21.003Z,31.46
2022-08-26T17:24:53.436Z,31.40
2022-08-26T17:26:26.244Z,31.33
2022-08-26T17:27:58.912Z,31.25
2022-08-26T17:29:31.027Z,31.15
2022-08-26T17:31:03.578Z,31.06
2022-08-26T17:32:35.841Z,30.95
2022-08-26T17:34:07.968Z,30.82
2022-08-26T17:35:40.117Z,30.71
2022-08-26T17:37:12.805Z,30.58
2022-08-26T17:38:45.044Z,30.46
2022-08-26T17:40:22.724Z,30.31
2022-08-26T17:41:54.865Z,30.16
2022-08-26T17:43:27.380Z,30.02
2022-08-26T17:44:59.605Z,29.88
2022-08-26T17:46:33.274Z,29.74
2022-08-26T17:48:08.087Z,29.59
2022-08-26T17:49:41.087Z,29.44
2022-08-26T17:51:14.548Z,29.29
2022-08-26T17:52:46.803Z,29.16
2022-08-26T17:54:18.981Z,29.03
2022-08-26T17:55:52.106Z,28.90
2022-08-26T17:57:25.340Z,28.79
2022-08-26T17:59:02.374Z,28.66
2022-08-26T18:00:36.215Z,28.55
2022-08-26T18:02:08.747Z,28.45
2022-08-26T18:03:41.154Z,28.35
2022-08-26T18:05:14.402Z,28.25
2022-08-26T18:06:46.807Z,28.16
2022-08-26T18:08:19.415Z,28.12
2022-08-26T18:09:51.987Z,28.06
2022-08-26T18:11:24.555Z,28.04
2022-08-26T18:12:56.886Z,28.01
2022-08-26T18:14:29.860Z,27.99
2022-08-26T18:16:03.343Z,27.98
2022-08-26T18:17:35.637Z,27.94
2022-08-26T18:19:08.232Z,27.90
2022-08-26T18:20:41.617Z,27.87
2022-08-26T18:22:15.658Z,27.82
2022-08-26T18:23:48.239Z,27.79
2022-08-26T18:25:20.451Z,27.77
2022-08-26T18:26:52.847Z,27.72
2022-08-26T18:28:24.946Z,27.67
2022-08-26T18:29:58.279Z,27.63
2022-08-26T18:31:30.742Z,27.59
2022-08-26T18:33:03.286Z,27.57
2022-08-26T18:34:35.905Z,27.54
2022-08-26T18:36:07.943Z,27.52
2022-08-26T18:37:40.252Z,27.48
2022-08-26T18:39:13.690Z,27.46
2022-08-26T18:40:45.915Z,27.43
2022-08-26T18:42:17.959Z,27.39
2022-08-26T18:43:50.699Z,27.31
2022-08-26T18:45:23.115Z,27.26
2022-08-26T18:46:55.281Z,27.20
2022-08-26T18:48:27.341Z,27.17
2022-08-26T18:50:00.463Z,27.14
2022-08-26T18:51:33.814Z,27.09
2022-08-26T18:53:07.722Z,27.04
2022-08-26T18:54:39.810Z,27.00
2022-08-26T18:56:13.257Z,26.95
2022-08-26T18:57:47.976Z,26.91
2022-08-26T18:59:20.152Z,26.86
2022-08-26T19:01:02.712Z,26.79
2022-08-26T19:02:35.045Z,26.74
2022-08-26T19:04:08.789Z,26.73
2022-08-26T19:05:47.811Z,26.69
2022-08-26T19:07:20.308Z,26.67
2022-08-26T19:08:53.186Z,26.65
2022-08-26T19:10:25.544Z,26.62
2022-08-26T19:11:58.156Z,26.60
2022-08-26T19:13:30.457Z,26.59
2022-08-26T19:15:02.807Z,26.58
2022-08-26T19:16:35.951Z,26.56
2022-08-26T19:18:09.121Z,26.55
2022-08-26T19:19:41.200Z,26.53
2022-08-26T19:21:13.885Z,26.53
2022-08-26T19:22:46.359Z,26.51
2022-08-26T19:24:19.882Z,26.48
2022-08-26T19:25:53.834Z,26.43
2022-08-26T19:27:26.024Z,26.38
2022-08-26T19:29:00.362Z,26.32
2022-08-26T19:30:32.560Z,26.28
2022-08-26T19:32:05.174Z,26.22
2022-08-26T19:33:39.544Z,26.15
2022-08-26T19:35:12.328Z,26.09
2022-08-26T19:36:45.102Z,26.03
2022-08-26T19:38:19.165Z,25.96
2022-08-26T19:39:51.447Z,25.93
2022-08-26T19:41:34.178Z,25.88
2022-08-26T19:43:10.697Z,25.83
2022-08-26T19:45:02.807Z,25.79
2022-08-26T19:48:14.491Z,25.69
2022-08-26T19:49:46.639Z,25.65
2022-08-26T19:51:24.343Z,25.61
2022-08-26T19:52:59.949Z,25.56
2022-08-26T19:54:31.991Z,25.52
2022-08-26T19:56:04.161Z,25.47
2022-08-26T19:57:36.963Z,25.44
2022-08-26T19:59:09.395Z,25.46
2022-08-26T20:00:42.461Z,25.45
2022-08-26T20:02:14.996Z,25.45
2022-08-26T20:03:47.243Z,25.49
2022-08-26T20:05:21.713Z,25.47
2022-08-26T20:06:57.765Z,25.49
2022-08-26T20:08:33.357Z,25.53
2022-08-26T20:10:07.327Z,25.55
2022-08-26T20:11:40.379Z,25.62
2022-08-26T20:13:13.190Z,25.72
2022-08-26T20:14:45.367Z,25.81
2022-08-26T20:16:17.588Z,25.86
2022-08-26T20:17:50.121Z,25.89
2022-08-26T20:19:40.595Z,25.93
2022-08-26T20:21:29.410Z,25.94
2022-08-26T20:23:03.644Z,25.92
2022-08-26T20:24:36.332Z,25.90
2022-08-26T20:26:08.393Z,25.88
2022-08-26T20:27:40.740Z,25.88
2022-08-26T20:29:13.975Z,25.86